Time;durP1;ratioP1;P1;durP2;ratioP2;P2;SDS_P1;SDS_P2;PMS_P1;PMS_P2;Temp;Humidity;BMP_temperature;BMP_pressure;BME280_temperature;BME280_humidity;BME280_pressure;Samples;Min_cycle;Max_cycle;Signal;HPM_P1;HPM_P2
2022/12/31 00:01:50;;;;;;;21.17;4.20;;;;;;;9.53;100.00;96828.25;5079608;28;20036;-81
2022/12/31 00:04:16;;;;;;;30.70;4.93;;;;;;;9.46;100.00;96807.50;5080425;28;20359;-81
2022/12/31 00:06:41;;;;;;;28.92;4.30;;;;;;;9.33;100.00;96818.31;5081990;28;20028;-80
2022/12/31 00:09:09;;;;;;;18.23;3.97;;;;;;;9.35;100.00;96824.91;5073738;28;20028;-81
2022/12/31 00:11:35;;;;;;;27.38;5.40;;;;;;;9.55;100.00;96816.53;5076794;28;20056;-81
2022/12/31 00:14:01;;;;;;;30.58;4.90;;;;;;;9.71;100.00;96816.72;5077531;28;20035;-81
2022/12/31 00:16:30;;;;;;;28.45;4.72;;;;;;;9.80;100.00;96803.97;5081346;28;20051;-81
2022/12/31 00:18:59;;;;;;;25.13;4.28;;;;;;;10.01;100.00;96818.09;5078864;28;20058;-81
2022/12/31 00:21:27;;;;;;;32.67;6.18;;;;;;;9.71;100.00;96824.56;5085023;28;20060;-81
2022/12/31 00:23:53;;;;;;;24.55;4.50;;;;;;;9.51;100.00;96825.91;5079227;28;20035;-80
2022/12/31 00:26:20;;;;;;;26.25;4.25;;;;;;;9.53;100.00;96836.94;5082910;28;20031;-80
2022/12/31 00:28:47;;;;;;;30.83;4.63;;;;;;;9.61;100.00;96816.59;5085300;28;20032;-81
2022/12/31 00:31:15;;;;;;;33.65;6.07;;;;;;;9.57;100.00;96805.81;5084702;28;20024;-80
2022/12/31 00:33:41;;;;;;;31.00;4.32;;;;;;;9.52;100.00;96818.81;5082649;28;20031;-82
2022/12/31 00:36:10;;;;;;;29.42;4.65;;;;;;;9.68;100.00;96804.13;5079026;28;20020;-82
2022/12/31 00:38:37;;;;;;;27.42;4.75;;;;;;;9.65;100.00;96817.69;5080216;28;20118;-83
2022/12/31 00:41:04;;;;;;;29.38;5.60;;;;;;;9.73;100.00;96827.75;5084050;28;20036;-81
2022/12/31 00:43:30;;;;;;;28.20;5.07;;;;;;;9.58;100.00;96816.03;5079953;28;20427;-82
2022/12/31 00:45:55;;;;;;;25.25;3.45;;;;;;;9.81;100.00;96819.44;5080386;28;20043;-81
2022/12/31 00:48:21;;;;;;;20.15;4.25;;;;;;;9.62;100.00;96805.06;5080102;28;20032;-82
2022/12/31 00:50:46;;;;;;;33.33;5.63;;;;;;;9.80;100.00;96812.63;5083604;28;20021;-81
2022/12/31 00:53:12;;;;;;;24.17;4.90;;;;;;;9.73;100.00;96812.03;5083222;28;20032;-80
2022/12/31 00:55:37;;;;;;;22.35;3.92;;;;;;;9.69;100.00;96811.72;5078430;28;20028;-80
2022/12/31 00:58:03;;;;;;;17.67;3.78;;;;;;;9.84;100.00;96815.56;5081972;28;20040;-81
2022/12/31 01:00:28;;;;;;;27.05;4.22;;;;;;;9.67;100.00;96818.25;5060417;28;20036;-80
2022/12/31 01:02:54;;;;;;;22.95;4.53;;;;;;;9.78;100.00;96808.69;5080749;28;20027;-81
2022/12/31 01:05:19;;;;;;;22.42;5.40;;;;;;;9.82;100.00;96805.31;5082477;28;20066;-81
2022/12/31 01:07:45;;;;;;;27.35;9.63;;;;;;;9.95;100.00;96813.84;5083229;28;20028;-81
2022/12/31 01:10:11;;;;;;;27.38;5.45;;;;;;;9.99;100.00;96807.06;5088245;28;20120;-81
2022/12/31 01:12:37;;;;;;;23.48;6.72;;;;;;;10.11;100.00;96817.41;5082042;28;20465;-80
2022/12/31 01:15:03;;;;;;;24.73;5.57;;;;;;;9.85;100.00;96806.66;5078872;28;20067;-81
2022/12/31 01:17:29;;;;;;;27.10;5.93;;;;;;;9.93;100.00;96826.41;5084394;28;20055;-81
2022/12/31 01:19:54;;;;;;;29.80;6.22;;;;;;;10.20;100.00;96821.19;5080331;28;20060;-82
2022/12/31 01:22:20;;;;;;;19.35;4.22;;;;;;;10.09;100.00;96801.94;5086125;28;20063;-81
2022/12/31 01:24:46;;;;;;;24.42;5.07;;;;;;;10.32;100.00;96833.34;5083834;28;20019;-80
2022/12/31 01:27:11;;;;;;;22.55;5.07;;;;;;;10.21;100.00;96827.22;5083789;28;20077;-80
2022/12/31 01:29:37;;;;;;;26.80;5.47;;;;;;;10.18;100.00;96799.69;5085566;28;20033;-82
2022/12/31 01:32:04;;;;;;;19.98;4.47;;;;;;;10.15;100.00;96827.16;5083608;28;20028;-83
2022/12/31 01:34:30;;;;;;;22.15;4.43;;;;;;;10.16;100.00;96820.09;5080371;28;20036;-83
2022/12/31 01:36:56;;;;;;;17.15;4.40;;;;;;;10.17;100.00;96836.63;5084082;28;20036;-83
2022/12/31 01:39:21;;;;;;;27.48;4.82;;;;;;;10.16;100.00;96825.34;5083969;28;20035;-81
2022/12/31 01:41:48;;;;;;;28.45;5.35;;;;;;;10.10;100.00;96821.06;5079329;28;20033;-82
2022/12/31 01:44:29;;;;;;;32.67;5.47;;;;;;;10.20;100.00;96831.69;5089026;28;20043;-82
2022/12/31 01:46:59;;;;;;;29.23;5.25;;;;;;;10.31;100.00;96816.84;5083256;28;20495;-81
2022/12/31 01:49:44;;;;;;;30.13;4.93;;;;;;;9.99;100.00;96826.22;5077609;28;20032;-81
2022/12/31 01:52:21;;;;;;;28.35;4.80;;;;;;;10.26;100.00;96835.16;5081255;28;20040;-80
2022/12/31 01:55:09;;;;;;;21.48;4.97;;;;;;;10.34;100.00;96837.31;5082142;28;20508;-80
2022/12/31 01:57:36;;;;;;;28.60;5.38;;;;;;;10.41;100.00;96806.47;5072666;28;20059;-80
2022/12/31 02:00:03;;;;;;;21.75;6.75;;;;;;;10.37;100.00;96821.09;5067440;28;20039;-81
2022/12/31 02:02:29;;;;;;;29.70;5.75;;;;;;;10.35;100.00;96817.91;5088154;28;20036;-81
2022/12/31 02:04:59;;;;;;;32.08;6.55;;;;;;;10.47;100.00;96846.66;5081000;28;20284;-80
2022/12/31 02:07:25;;;;;;;19.38;5.57;;;;;;;10.54;100.00;96859.56;5084061;28;20032;-81
2022/12/31 02:09:51;;;;;;;29.27;6.80;;;;;;;10.51;100.00;96836.47;5085410;28;20385;-82
2022/12/31 02:12:16;;;;;;;22.13;5.55;;;;;;;10.12;100.00;96827.66;5086879;28;20025;-81
2022/12/31 02:14:46;;;;;;;23.13;5.75;;;;;;;10.31;100.00;96864.03;5076322;28;20027;-81
2022/12/31 02:17:30;;;;;;;28.17;6.07;;;;;;;10.77;100.00;96862.91;5079137;28;20035;-80
2022/12/31 02:20:14;;;;;;;;;;;;;;;10.38;100.00;96854.13;5085851;28;20032;-81
2022/12/31 02:22:44;;;;;;;22.20;5.18;;;;;;;10.60;100.00;96855.94;5094525;28;19915;-80
2022/12/31 02:25:28;;;;;;;29.25;5.30;;;;;;;10.79;100.00;96853.75;5079960;28;20108;-81
2022/12/31 02:28:17;;;;;;;34.70;6.28;;;;;;;10.76;100.00;96854.28;5076665;28;20028;-81
2022/12/31 02:30:49;;;;;;;32.13;5.30;;;;;;;10.61;100.00;96844.44;5075658;28;20024;-81
2022/12/31 02:33:37;;;;;;;18.02;5.10;;;;;;;10.92;100.00;96857.81;5075469;28;20115;-81
2022/12/31 02:36:15;;;;;;;23.38;4.35;;;;;;;10.89;100.00;96863.56;5082494;28;20089;-81
2022/12/31 02:38:44;;;;;;;30.98;4.97;;;;;;;10.77;100.00;96857.66;5083519;28;20027;-82
2022/12/31 02:41:48;;;;;;;28.35;4.57;;;;;;;10.74;100.00;96834.56;5082537;28;20036;-82
2022/12/31 02:44:22;;;;;;;21.23;4.35;;;;;;;10.89;100.00;96841.75;5084147;28;20036;-82
2022/12/31 02:47:00;;;;;;;22.33;4.45;;;;;;;10.91;100.00;96850.97;5076003;28;20566;-81
2022/12/31 02:49:41;;;;;;;23.70;4.72;;;;;;;10.57;100.00;96833.63;5081806;28;20513;-82
2022/12/31 02:52:12;;;;;;;20.48;4.50;;;;;;;10.74;100.00;96852.91;5082066;28;20020;-82
2022/12/31 02:54:57;;;;;;;27.20;4.68;;;;;;;10.61;100.00;96841.81;5076861;28;20028;-82
2022/12/31 02:57:39;;;;;;;21.92;5.00;;;;;;;10.66;100.00;96849.72;5081258;28;20491;-81
2022/12/31 03:02:54;;;;;;;19.58;4.00;;;;;;;10.54;100.00;96872.69;5080080;28;20032;-82
2022/12/31 03:05:23;;;;;;;16.60;3.75;;;;;;;10.69;100.00;96870.22;5078911;28;20034;-81
2022/12/31 03:07:49;;;;;;;28.75;4.70;;;;;;;10.51;100.00;96881.06;5057240;28;20329;-82
2022/12/31 03:10:15;;;;;;;24.63;4.53;;;;;;;10.85;100.00;96872.97;5081567;28;20036;-81
2022/12/31 03:12:45;;;;;;;24.10;5.03;;;;;;;10.56;100.00;96875.84;5076017;28;20025;-80
2022/12/31 03:15:20;;;;;;;14.68;4.25;;;;;;;10.55;100.00;96875.06;5080576;28;20024;-81
2022/12/31 03:18:02;;;;;;;26.02;4.30;;;;;;;10.54;100.00;96877.94;5079075;28;20032;-81
2022/12/31 03:23:19;;;;;;;24.23;3.63;;;;;;;10.27;100.00;96878.69;5083537;28;20055;-81
2022/12/31 03:25:45;;;;;;;21.42;5.03;;;;;;;10.69;100.00;96870.22;5080349;28;20024;-81
2022/12/31 03:28:14;;;;;;;18.65;3.97;;;;;;;10.46;100.00;96850.31;5083042;28;20033;-81
2022/12/31 03:30:43;;;;;;;18.77;3.78;;;;;;;10.48;100.00;96847.44;5081410;28;20024;-81
2022/12/31 03:33:09;;;;;;;18.42;4.30;;;;;;;10.56;100.00;96860.91;5081933;28;20028;-81
2022/12/31 03:35:36;;;;;;;18.25;3.42;;;;;;;10.70;100.00;96850.81;5079252;28;20032;-82
2022/12/31 03:38:03;;;;;;;15.02;4.38;;;;;;;10.56;100.00;96857.47;5079631;28;20060;-82
2022/12/31 03:40:30;;;;;;;12.75;3.58;;;;;;;10.47;100.00;96872.88;5085715;28;20039;-81
2022/12/31 03:42:56;;;;;;;11.98;3.60;;;;;;;10.90;100.00;96867.75;5080863;28;20037;-82
2022/12/31 03:45:23;;;;;;;14.60;4.32;;;;;;;10.42;100.00;96876.25;5086492;28;20039;-81
2022/12/31 03:47:48;;;;;;;14.48;4.35;;;;;;;10.59;100.00;96859.59;5075939;28;20032;-82
2022/12/31 03:50:17;;;;;;;12.43;3.75;;;;;;;10.51;100.00;96862.69;5081498;28;20020;-82
2022/12/31 03:52:43;;;;;;;11.75;3.75;;;;;;;10.49;100.00;96844.56;5082756;28;20477;-82
2022/12/31 03:55:10;;;;;;;15.13;5.28;;;;;;;10.77;100.00;96844.53;5077829;28;20029;-82
2022/12/31 03:57:36;;;;;;;11.35;3.90;;;;;;;10.64;100.00;96825.56;5085260;28;20047;-82
2022/12/31 04:00:05;;;;;;;18.38;3.92;;;;;;;10.61;100.00;96856.75;5089877;28;20442;-83
2022/12/31 04:02:30;;;;;;;13.57;3.80;;;;;;;10.60;100.00;96858.56;5084472;28;20074;-82
2022/12/31 04:04:56;;;;;;;11.73;5.03;;;;;;;10.67;100.00;96840.81;5084910;28;20061;-83
2022/12/31 04:07:22;;;;;;;15.55;4.00;;;;;;;10.66;100.00;96843.66;5083664;28;20056;-83
2022/12/31 04:09:47;;;;;;;15.85;3.72;;;;;;;10.75;100.00;96839.56;5086580;28;20081;-82
2022/12/31 04:12:13;;;;;;;14.93;3.65;;;;;;;10.71;100.00;96841.88;5085622;28;20128;-82
2022/12/31 04:14:38;;;;;;;9.80;3.20;;;;;;;10.88;100.00;96851.47;5084667;28;20036;-82
2022/12/31 04:17:04;;;;;;;16.40;3.65;;;;;;;10.73;100.00;96828.53;5086334;28;20024;-81
2022/12/31 04:19:29;;;;;;;9.43;2.75;;;;;;;10.82;100.00;96849.84;5080581;28;20032;-81
2022/12/31 04:21:55;;;;;;;9.85;3.13;;;;;;;10.87;100.00;96852.53;5079694;28;20101;-80
2022/12/31 04:24:21;;;;;;;4.88;2.08;;;;;;;10.80;100.00;96842.22;5083746;28;20044;-83
2022/12/31 04:26:47;;;;;;;5.25;2.28;;;;;;;10.86;100.00;96828.09;5090600;28;20101;-83
2022/12/31 04:29:12;;;;;;;4.63;2.15;;;;;;;10.92;100.00;96857.81;5083123;28;20031;-82
2022/12/31 04:31:38;;;;;;;5.95;2.20;;;;;;;10.68;100.00;96858.13;5083616;28;20024;-83
2022/12/31 04:34:03;;;;;;;6.97;2.10;;;;;;;10.95;100.00;96867.03;5084032;28;20475;-82
2022/12/31 04:36:29;;;;;;;9.15;2.30;;;;;;;11.02;100.00;96862.34;5077685;28;20024;-81
2022/12/31 04:38:56;;;;;;;6.13;1.70;;;;;;;10.69;100.00;96858.91;5085193;28;20025;-82
2022/12/31 04:41:32;;;;;;;;;;;;;;;;;;;;;
2022/12/31 04:43:59;;;;;;;7.45;2.20;;;;;;;11.02;100.00;96862.34;5081108;28;20502;-82
2022/12/31 04:46:30;;;;;;;4.13;2.30;;;;;;;10.70;100.00;96874.41;5085799;28;20399;-83
2022/12/31 04:48:57;;;;;;;3.95;2.47;;;;;;;11.14;100.00;96870.84;5085619;28;20453;-82
2022/12/31 04:51:23;;;;;;;6.50;2.20;;;;;;;11.06;100.00;96871.28;5081172;28;20074;-82
2022/12/31 04:53:49;;;;;;;6.18;2.42;;;;;;;11.18;100.00;96857.97;5082608;28;20032;-82
2022/12/31 04:56:16;;;;;;;5.55;2.10;;;;;;;11.03;100.00;96848.16;5082190;28;20107;-82
2022/12/31 04:58:41;;;;;;;6.90;2.65;;;;;;;11.07;100.00;96851.88;5098895;28;20056;-81
2022/12/31 05:01:07;;;;;;;5.07;2.25;;;;;;;10.90;100.00;96859.88;5083418;28;20035;-82
2022/12/31 05:03:34;;;;;;;8.75;2.65;;;;;;;11.19;100.00;96854.31;5080783;28;20028;-83
2022/12/31 05:06:10;;;;;;;4.07;2.40;;;;;;;11.30;100.00;96849.94;5080481;28;20032;-82
2022/12/31 05:08:35;;;;;;;7.75;2.80;;;;;;;11.29;100.00;96854.41;5080259;28;20037;-83
2022/12/31 05:11:01;;;;;;;4.20;2.47;;;;;;;10.97;100.00;96833.44;5087212;28;20480;-82
2022/12/31 05:13:27;;;;;;;8.20;2.38;;;;;;;11.19;100.00;96832.53;5083780;28;20035;-83
2022/12/31 05:15:54;;;;;;;6.68;2.53;;;;;;;10.82;100.00;96795.53;5083678;28;20067;-82
2022/12/31 05:18:20;;;;;;;10.38;3.70;;;;;;;10.62;100.00;96827.66;5081912;28;20581;-83
2022/12/31 05:20:46;;;;;;;7.60;2.40;;;;;;;11.20;100.00;96826.22;5083034;28;20111;-83
2022/12/31 05:23:13;;;;;;;8.30;2.88;;;;;;;11.06;100.00;96818.78;5088588;28;20028;-83
2022/12/31 05:25:40;;;;;;;4.63;2.78;;;;;;;11.12;100.00;96822.25;5078321;28;20841;-83
2022/12/31 05:28:06;;;;;;;8.68;2.97;;;;;;;11.21;100.00;96830.44;5082168;28;20032;-83
2022/12/31 05:30:32;;;;;;;6.20;3.10;;;;;;;10.96;100.00;96839.72;5085125;28;20480;-84
2022/12/31 05:32:58;;;;;;;8.35;3.30;;;;;;;11.14;100.00;96825.41;5085061;28;20131;-83
2022/12/31 05:35:23;;;;;;;9.50;2.95;;;;;;;11.19;100.00;96819.41;5081858;28;20032;-83
2022/12/31 05:37:49;;;;;;;7.65;3.00;;;;;;;11.20;100.00;96831.47;5083054;28;20032;-82
2022/12/31 05:40:14;;;;;;;6.57;3.78;;;;;;;11.14;100.00;96833.28;5086193;28;20132;-83
2022/12/31 05:42:40;;;;;;;10.48;3.38;;;;;;;11.09;100.00;96831.41;5084182;28;20028;-81
2022/12/31 05:45:06;;;;;;;9.98;3.40;;;;;;;10.74;100.00;96831.94;5083355;28;20107;-82
2022/12/31 05:47:32;;;;;;;6.32;3.13;;;;;;;11.11;100.00;96850.34;5087551;28;20050;-83
2022/12/31 05:49:58;;;;;;;12.57;4.45;;;;;;;10.95;100.00;96825.78;5065182;28;20028;-83
2022/12/31 05:52:26;;;;;;;19.85;6.13;;;;;;;11.10;100.00;96821.69;5081797;28;20024;-82
2022/12/31 05:54:52;;;;;;;17.75;6.93;;;;;;;10.91;100.00;96824.72;5088273;28;20028;-82
2022/12/31 05:57:17;;;;;;;21.92;7.85;;;;;;;11.17;100.00;96834.63;5085195;28;20148;-82
2022/12/31 05:59:43;;;;;;;24.30;7.90;;;;;;;11.32;100.00;96833.91;5084316;28;20051;-82
2022/12/31 06:02:08;;;;;;;26.88;9.85;;;;;;;11.18;100.00;96826.47;5083454;28;20048;-82
2022/12/31 06:04:34;;;;;;;40.25;12.50;;;;;;;11.14;100.00;96854.28;5078475;28;20025;-82
2022/12/31 06:06:59;;;;;;;26.45;10.23;;;;;;;11.10;100.00;96842.72;5085028;28;20051;-82
2022/12/31 06:09:25;;;;;;;22.90;8.55;;;;;;;11.12;100.00;96854.56;5079681;28;20031;-82
2022/12/31 06:11:51;;;;;;;21.70;8.60;;;;;;;10.96;100.00;96834.47;5080457;28;20024;-81
2022/12/31 06:14:17;;;;;;;23.55;9.43;;;;;;;10.91;100.00;96837.06;5078236;28;20047;-81
2022/12/31 06:16:42;;;;;;;24.23;8.88;;;;;;;11.19;100.00;96828.06;5081834;28;20497;-82
2022/12/31 06:19:08;;;;;;;24.15;9.23;;;;;;;11.11;100.00;96826.72;5079094;28;20028;-82
2022/12/31 06:21:34;;;;;;;20.13;7.32;;;;;;;11.14;100.00;96822.78;5089078;28;20525;-82
2022/12/31 06:24:00;;;;;;;25.05;9.15;;;;;;;11.12;100.00;96819.63;5081904;28;20400;-82
2022/12/31 06:26:26;;;;;;;19.30;6.55;;;;;;;10.92;100.00;96794.81;5085133;28;20020;-82
2022/12/31 06:28:53;;;;;;;17.73;7.22;;;;;;;11.03;100.00;96823.75;5080022;28;20032;-82
2022/12/31 06:31:19;;;;;;;24.65;7.85;;;;;;;10.93;100.00;96825.25;5085371;28;20343;-81
2022/12/31 06:33:47;;;;;;;22.83;7.60;;;;;;;11.13;100.00;96837.75;5081016;28;20086;-81
2022/12/31 06:36:14;;;;;;;20.92;7.80;;;;;;;11.18;100.00;96838.81;5077046;28;20035;-82
2022/12/31 06:38:42;;;;;;;18.98;8.10;;;;;;;11.17;100.00;96835.41;5087067;28;20615;-82
2022/12/31 06:41:09;;;;;;;14.55;6.25;;;;;;;11.09;100.00;96846.38;5082563;28;20481;-82
2022/12/31 06:43:37;;;;;;;21.85;7.38;;;;;;;11.09;100.00;96836.66;5083847;28;20032;-82
2022/12/31 06:46:05;;;;;;;16.67;6.68;;;;;;;11.29;100.00;96850.97;5079188;28;20034;-82
2022/12/31 06:48:32;;;;;;;21.67;7.07;;;;;;;11.10;100.00;96847.97;5074377;28;20029;-83
2022/12/31 06:51:07;;;;;;;18.52;8.52;;;;;;;11.05;100.00;96861.06;5081701;28;20035;-82
2022/12/31 06:53:33;;;;;;;11.88;5.35;;;;;;;11.10;100.00;96854.00;5083984;28;20390;-81
2022/12/31 06:56:05;;;;;;;9.68;5.80;;;;;;;11.24;100.00;96859.63;5075507;28;20028;-81
2022/12/31 06:58:31;;;;;;;15.67;7.00;;;;;;;11.10;100.00;96866.34;5078799;28;20462;-81
2022/12/31 07:01:21;;;;;;;14.45;6.68;;;;;;;11.24;100.00;96857.00;5078912;28;20024;-81
2022/12/31 07:03:59;;;;;;;8.95;3.80;;;;;;;11.39;100.00;96856.28;5081326;28;20115;-83
2022/12/31 07:06:47;;;;;;;6.68;3.88;;;;;;;11.38;100.00;96853.91;5082325;28;20032;-81
2022/12/31 07:09:19;;;;;;;8.35;3.20;;;;;;;11.39;100.00;96866.00;5078197;28;20462;-81
2022/12/31 07:11:48;;;;;;;7.07;3.83;;;;;;;11.43;100.00;96865.25;5068213;28;20155;-83
2022/12/31 07:14:16;;;;;;;5.45;3.22;;;;;;;11.38;100.00;96864.41;5077373;28;20036;-81
2022/12/31 07:16:58;;;;;;;6.65;2.05;;;;;;;11.05;100.00;96863.69;5081297;28;20462;-81
2022/12/31 07:19:51;;;;;;;1.77;1.63;;;;;;;11.24;100.00;96883.25;5078815;28;20039;-82
2022/12/31 07:22:16;;;;;;;4.22;1.92;;;;;;;10.99;100.00;96858.38;5082720;28;20032;-82
2022/12/31 07:24:43;;;;;;;5.15;2.22;;;;;;;11.03;100.00;96863.16;5083979;28;20051;-82
2022/12/31 07:27:20;;;;;;;4.13;1.80;;;;;;;10.92;100.00;96880.66;5082475;28;20024;-82
2022/12/31 07:29:52;;;;;;;1.75;1.50;;;;;;;10.70;100.00;96890.16;5076511;28;20032;-82
2022/12/31 07:32:26;;;;;;;2.20;1.75;;;;;;;10.84;100.00;96898.41;5076947;28;20048;-82
2022/12/31 07:35:10;;;;;;;3.47;1.88;;;;;;;10.83;100.00;96888.19;5077818;28;20035;-80
2022/12/31 07:38:12;;;;;;;1.90;1.70;;;;;;;10.92;100.00;96896.41;5077251;28;20478;-81
2022/12/31 07:41:03;;;;;;;2.13;1.70;;;;;;;10.64;100.00;96914.78;5077733;28;20038;-80
2022/12/31 07:43:53;;;;;;;2.33;1.70;;;;;;;10.99;100.00;96904.84;5071709;28;20020;-81
2022/12/31 07:46:29;;;;;;;3.00;1.60;;;;;;;10.83;100.00;96891.59;5075956;28;20056;-80
2022/12/31 07:48:55;;;;;;;2.10;1.60;;;;;;;11.04;100.00;96880.47;5069628;28;20456;-81
2022/12/31 07:51:21;;;;;;;1.38;1.27;;;;;;;10.76;100.00;96879.69;5079139;28;20052;-77
2022/12/31 07:53:47;;;;;;;2.33;1.45;;;;;;;10.71;100.00;96909.34;5081636;28;20492;-79
2022/12/31 07:56:13;;;;;;;2.03;1.40;;;;;;;11.23;100.00;96915.00;5074499;28;20033;-78
2022/12/31 07:59:09;;;;;;;1.60;1.20;;;;;;;11.22;100.00;96939.69;5075475;28;20131;-78
2022/12/31 08:01:42;;;;;;;1.80;1.38;;;;;;;11.34;100.00;96952.63;5076194;28;20059;-77
2022/12/31 08:04:40;;;;;;;1.50;1.20;;;;;;;11.25;100.00;96960.19;5058842;28;20055;-78
2022/12/31 08:07:44;;;;;;;3.58;1.40;;;;;;;11.29;100.00;96950.75;5070613;28;20111;-78
2022/12/31 08:10:42;;;;;;;2.70;1.40;;;;;;;10.90;100.00;96983.25;5064314;28;20381;-77
2022/12/31 08:13:10;;;;;;;2.22;0.90;;;;;;;10.61;100.00;96940.69;5078519;28;20024;-78
2022/12/31 08:15:37;;;;;;;1.27;0.70;;;;;;;10.69;100.00;96969.91;5076279;28;20112;-78
2022/12/31 08:18:04;;;;;;;0.73;0.70;;;;;;;10.41;100.00;96955.94;5083036;28;20115;-78
2022/12/31 08:20:32;;;;;;;0.77;0.70;;;;;;;10.58;100.00;96989.19;5082992;28;20028;-77
2022/12/31 08:23:01;;;;;;;2.05;0.65;;;;;;;10.75;100.00;96983.06;5074626;28;20052;-77
2022/12/31 08:25:44;;;;;;;0.63;0.63;;;;;;;10.74;100.00;96981.50;5077467;28;20115;-77
2022/12/31 08:28:24;;;;;;;1.95;0.70;;;;;;;10.76;100.00;96985.47;5079476;28;20056;-77
2022/12/31 08:31:13;;;;;;;0.70;0.70;;;;;;;10.77;100.00;96991.50;5080169;28;20029;-77
2022/12/31 08:33:51;;;;;;;0.70;0.70;;;;;;;10.78;100.00;96990.47;5083397;28;20054;-78
2022/12/31 08:36:32;;;;;;;1.20;1.00;;;;;;;10.74;100.00;96999.88;5075110;28;20098;-78
2022/12/31 08:39:19;;;;;;;1.77;1.67;;;;;;;10.64;100.00;96984.81;5062511;28;20032;-77
2022/12/31 08:41:49;;;;;;;1.27;0.98;;;;;;;10.80;100.00;97004.13;5072882;28;20040;-79
2022/12/31 08:44:21;;;;;;;2.15;1.70;;;;;;;10.74;100.00;96997.25;5085084;28;20043;-77
2022/12/31 08:47:22;;;;;;;1.90;1.40;;;;;;;10.83;100.00;96998.41;5085698;28;20033;-79
2022/12/31 08:49:48;;;;;;;5.00;1.98;;;;;;;10.88;100.00;96997.66;5081454;28;20043;-79
2022/12/31 08:52:23;;;;;;;1.70;0.80;;;;;;;10.86;100.00;97011.81;5081759;28;20024;-79
2022/12/31 08:54:49;;;;;;;0.90;0.90;;;;;;;11.05;100.00;97016.72;5082425;28;20037;-80
2022/12/31 08:57:32;;;;;;;0.60;0.60;;;;;;;11.10;100.00;97016.78;5080279;28;20036;-80
2022/12/31 09:00:03;;;;;;;1.40;1.13;;;;;;;11.09;100.00;97024.91;5081259;28;20054;-81
2022/12/31 09:02:31;;;;;;;7.15;4.10;;;;;;;11.04;100.00;97027.50;5084669;28;20393;-80
2022/12/31 09:05:22;;;;;;;6.65;3.88;;;;;;;11.16;100.00;97020.25;5082242;28;20031;-80
2022/12/31 09:07:57;;;;;;;9.95;6.55;;;;;;;11.23;100.00;97020.84;5082376;28;20033;-79
2022/12/31 09:10:29;;;;;;;14.13;8.73;;;;;;;11.05;100.00;97021.19;5066783;28;20036;-80
2022/12/31 09:13:10;;;;;;;13.10;7.07;;;;;;;10.92;100.00;97017.91;5080879;28;20028;-80
2022/12/31 09:15:43;;;;;;;12.18;8.02;;;;;;;11.22;100.00;97029.78;5078697;28;20127;-80
2022/12/31 09:18:10;;;;;;;12.30;8.10;;;;;;;11.37;100.00;97042.25;5080329;28;20039;-80
2022/12/31 09:20:36;;;;;;;11.65;7.53;;;;;;;11.46;100.00;97049.66;5080835;28;20044;-80
2022/12/31 09:23:04;;;;;;;12.27;7.25;;;;;;;11.41;100.00;97045.19;5083156;28;20100;-79
2022/12/31 09:25:30;;;;;;;6.78;5.43;;;;;;;11.37;100.00;97055.38;5078482;28;20040;-81
2022/12/31 09:28:19;;;;;;;8.57;5.30;;;;;;;11.50;100.00;97056.81;5078855;28;20355;-80
2022/12/31 09:31:04;;;;;;;5.95;3.83;;;;;;;11.56;100.00;97058.44;5082609;28;20381;-80
2022/12/31 09:33:36;;;;;;;5.32;2.72;;;;;;;11.61;100.00;97064.78;5064618;28;20032;-80
2022/12/31 09:36:07;;;;;;;3.05;2.15;;;;;;;11.71;100.00;97078.00;5082349;28;20020;-82
2022/12/31 09:39:02;;;;;;;1.55;1.40;;;;;;;11.78;100.00;97093.56;5065554;28;20390;-80
2022/12/31 09:41:46;;;;;;;2.13;1.50;;;;;;;11.77;100.00;97095.41;5082397;28;20028;-81
2022/12/31 09:44:11;;;;;;;;;;;;;;;11.67;100.00;97108.47;5081922;28;20390;-79
2022/12/31 09:46:59;;;;;;;2.28;2.00;;;;;;;11.74;100.00;97109.03;5062574;28;19913;-80
2022/12/31 09:50:16;;;;;;;3.03;2.05;;;;;;;11.66;100.00;97091.09;5082782;28;20037;-80
2022/12/31 09:53:00;;;;;;;2.95;2.03;;;;;;;11.89;100.00;97094.44;5061751;28;20082;-80
2022/12/31 09:55:30;;;;;;;2.83;1.92;;;;;;;11.80;100.00;97086.22;5061165;28;20108;-81
2022/12/31 09:58:26;;;;;;;2.67;2.08;;;;;;;11.88;100.00;97088.38;5083074;28;20028;-80
2022/12/31 10:00:54;;;;;;;2.28;1.98;;;;;;;11.95;100.00;97082.91;5074791;28;20378;-80
2022/12/31 10:03:46;;;;;;;2.88;1.98;;;;;;;12.11;100.00;97100.44;5085824;28;20119;-82
2022/12/31 10:06:23;;;;;;;2.50;1.90;;;;;;;12.05;100.00;97106.69;5083228;28;20074;-82
2022/12/31 10:09:09;;;;;;;3.33;1.88;;;;;;;12.20;100.00;97102.59;5083280;28;20035;-80
2022/12/31 10:12:10;;;;;;;2.30;2.10;;;;;;;12.01;100.00;97100.38;5077192;28;20085;-80
2022/12/31 10:14:49;;;;;;;2.90;1.70;;;;;;;12.11;100.00;97102.28;5060239;28;20036;-84
2022/12/31 10:17:45;;;;;;;2.63;2.08;;;;;;;12.20;100.00;97099.97;5083399;28;20028;-83
2022/12/31 10:20:33;;;;;;;2.17;1.95;;;;;;;12.22;100.00;97103.91;5078741;28;20074;-82
2022/12/31 10:23:44;;;;;;;2.88;2.15;;;;;;;12.03;100.00;97095.66;5085572;28;20040;-81
2022/12/31 10:26:25;;;;;;;1.85;1.60;;;;;;;12.11;100.00;97097.78;5079831;28;20024;-82
2022/12/31 10:29:23;;;;;;;4.18;1.65;;;;;;;12.02;100.00;97101.94;5081924;28;20088;-82
2022/12/31 10:31:52;;;;;;;2.08;1.63;;;;;;;11.98;100.00;97116.59;5085965;28;20024;-83
2022/12/31 10:34:43;;;;;;;3.42;1.77;;;;;;;11.97;100.00;97115.00;5066454;28;20040;-83
2022/12/31 10:37:13;;;;;;;2.67;2.05;;;;;;;11.96;100.00;97121.31;5077491;28;20497;-82
2022/12/31 10:40:04;;;;;;;3.38;2.70;;;;;;;11.99;100.00;97115.56;5078362;28;20036;-82
2022/12/31 10:42:32;;;;;;;4.22;3.00;;;;;;;12.10;100.00;97116.47;5080022;28;20044;-84
2022/12/31 10:45:45;;;;;;;7.07;4.28;;;;;;;12.24;100.00;97114.19;5082503;28;20067;-86
2022/12/31 10:48:35;;;;;;;7.22;4.05;;;;;;;12.24;100.00;97106.31;5080210;28;20032;-84
2022/12/31 10:51:28;;;;;;;7.38;4.72;;;;;;;12.19;100.00;97101.81;5082048;28;20067;-83
2022/12/31 10:54:31;;;;;;;7.07;4.63;;;;;;;12.54;100.00;97115.41;5080671;28;20029;-84
2022/12/31 10:57:16;;;;;;;8.23;5.18;;;;;;;12.51;100.00;97115.94;5079153;28;20070;-83
2022/12/31 10:59:53;;;;;;;7.57;4.32;;;;;;;12.54;100.00;97110.16;5086767;28;20098;-84
2022/12/31 11:02:57;;;;;;;5.88;4.03;;;;;;;12.52;100.00;97112.25;5082386;28;20051;-82
2022/12/31 11:05:28;;;;;;;6.90;4.30;;;;;;;12.42;100.00;97105.91;5080234;28;20493;-82
2022/12/31 11:08:37;;;;;;;5.45;3.90;;;;;;;12.53;100.00;97108.56;5080950;28;20394;-83
2022/12/31 11:11:21;;;;;;;9.25;4.57;;;;;;;12.50;100.00;97104.63;5079064;28;20027;-83
2022/12/31 11:13:52;;;;;;;6.60;4.82;;;;;;;12.42;100.00;97119.06;5060211;28;20082;-84
2022/12/31 11:16:45;;;;;;;8.93;5.43;;;;;;;12.36;100.00;97108.75;5076708;28;20032;-82
2022/12/31 11:19:35;;;;;;;8.77;5.53;;;;;;;12.24;100.00;97101.81;5084882;28;20032;-81
2022/12/31 11:22:07;;;;;;;6.68;5.30;;;;;;;12.34;100.00;97106.34;5081516;28;20031;-83
2022/12/31 11:24:51;;;;;;;9.70;6.18;;;;;;;12.53;100.00;97108.56;5084934;28;20028;-82
2022/12/31 11:27:32;;;;;;;10.48;7.13;;;;;;;12.65;100.00;97101.28;5082065;28;20032;-82
2022/12/31 11:30:04;;;;;;;11.70;7.70;;;;;;;12.60;100.00;97085.47;5083419;28;20115;-82
2022/12/31 11:32:33;;;;;;;9.82;7.10;;;;;;;12.68;100.00;97094.72;5080022;28;20078;-81
2022/12/31 11:35:18;;;;;;;14.13;8.88;;;;;;;12.66;100.00;97102.88;5080437;28;20406;-84
2022/12/31 11:37:48;;;;;;;14.30;9.80;;;;;;;12.67;100.00;97109.72;5078480;28;20156;-83
2022/12/31 11:40:47;;;;;;;15.57;10.00;;;;;;;12.89;100.00;97098.22;5078993;28;20040;-82
2022/12/31 11:43:22;;;;;;;21.95;12.48;;;;;;;12.90;100.00;97094.53;5083030;28;20033;-83
2022/12/31 11:46:16;;;;;;;26.30;14.38;;;;;;;12.97;100.00;97081.94;5083996;28;20115;-83
2022/12/31 11:49:06;;;;;;;22.63;13.10;;;;;;;13.14;100.00;97086.19;5065768;28;20025;-82
2022/12/31 11:51:35;;;;;;;18.17;11.30;;;;;;;13.07;100.00;97093.56;5063955;28;20033;-81
2022/12/31 11:54:13;;;;;;;11.20;8.10;;;;;;;12.95;100.00;97080.59;5081273;28;20367;-83
2022/12/31 11:56:50;;;;;;;7.75;4.47;;;;;;;13.11;100.00;97071.72;5079142;28;20035;-81
2022/12/31 11:59:15;;;;;;;4.75;3.20;;;;;;;12.76;100.00;97059.19;5073479;28;20102;-81